createdAt,value
2019-04-30T00:00:45.616Z,2.20
2019-04-30T00:03:31.631Z,2.97
2019-04-30T00:05:57.887Z,4.43
2019-04-30T00:08:25.829Z,3.33
2019-04-30T00:10:52.300Z,4.70
2019-04-30T00:13:20.982Z,4.07
2019-04-30T00:15:48.060Z,9.50
2019-04-30T00:18:15.532Z,5.00
2019-04-30T00:20:45.294Z,5.03
2019-04-30T00:23:11.113Z,3.80
2019-04-30T00:25:37.359Z,4.10
2019-04-30T00:28:05.251Z,6.47
2019-04-30T00:30:31.756Z,5.87
2019-04-30T00:32:58.006Z,4.40
2019-04-30T00:35:25.391Z,5.93
2019-04-30T00:37:57.622Z,3.60
2019-04-30T00:40:21.663Z,5.87
2019-04-30T00:42:48.688Z,4.70
2019-04-30T00:45:15.441Z,4.90
2019-04-30T00:47:44.620Z,5.23
2019-04-30T00:50:52.531Z,4.57
2019-04-30T00:53:18.778Z,5.57
2019-04-30T00:55:48.437Z,3.57
2019-04-30T00:58:17.740Z,4.23
2019-04-30T01:06:09.670Z,6.63
2019-04-30T01:08:35.937Z,4.73
2019-04-30T01:11:06.565Z,4.90
2019-04-30T01:13:30.408Z,9.20
2019-04-30T01:15:58.661Z,6.40
2019-04-30T01:18:28.583Z,4.97
2019-04-30T01:20:53.065Z,5.63
2019-04-30T01:24:00.636Z,4.03
2019-04-30T01:29:04.292Z,5.40
2019-04-30T01:31:32.951Z,4.97
2019-04-30T01:33:59.044Z,8.13
2019-04-30T01:36:26.822Z,4.30
2019-04-30T01:38:53.069Z,5.30
2019-04-30T01:41:20.312Z,4.10
2019-04-30T01:43:48.728Z,3.93
2019-04-30T01:46:15.717Z,3.03
2019-04-30T01:48:43.601Z,6.37
2019-04-30T01:51:13.289Z,3.73
2019-04-30T01:53:38.758Z,4.97
2019-04-30T01:56:26.169Z,3.87
2019-04-30T02:04:13.664Z,4.60
2019-04-30T02:06:40.008Z,4.47
2019-04-30T02:09:06.354Z,2.67
2019-04-30T02:11:32.608Z,5.27
2019-04-30T02:13:59.190Z,5.10
2019-04-30T02:16:28.949Z,4.73
2019-04-30T02:21:23.193Z,3.93
2019-04-30T02:23:49.481Z,6.43
2019-04-30T02:26:56.984Z,5.13
2019-04-30T02:29:23.238Z,5.63
2019-04-30T02:31:50.387Z,4.77
2019-04-30T02:40:00.791Z,4.43
2019-04-30T02:43:09.333Z,7.67
2019-04-30T02:57:52.055Z,3.83
2019-04-30T03:02:52.814Z,5.97
2019-04-30T03:05:20.221Z,4.47
2019-04-30T03:07:53.014Z,8.00
2019-04-30T03:10:15.384Z,5.00
2019-04-30T03:12:41.600Z,5.60
2019-04-30T03:15:09.969Z,3.90
2019-04-30T03:20:43.434Z,5.83
2019-04-30T03:23:10.082Z,4.87
2019-04-30T03:25:40.356Z,5.10
2019-04-30T03:28:05.959Z,4.97
2019-04-30T03:30:32.531Z,5.67
2019-04-30T03:33:02.821Z,6.17
2019-04-30T03:35:32.233Z,4.40
2019-04-30T03:37:59.090Z,4.90
2019-04-30T03:40:24.778Z,6.03
2019-04-30T03:42:51.017Z,4.47
2019-04-30T03:45:20.214Z,3.97
2019-04-30T03:47:45.416Z,3.80
2019-04-30T03:50:11.683Z,4.17
2019-04-30T03:52:39.470Z,5.77
2019-04-30T03:55:06.172Z,6.23
2019-04-30T03:57:32.414Z,8.37
2019-04-30T03:59:59.402Z,10.40
2019-04-30T04:02:46.563Z,6.00
2019-04-30T04:08:43.256Z,7.43
2019-04-30T04:11:29.741Z,7.47
2019-04-30T04:13:55.966Z,8.43
2019-04-30T04:16:22.309Z,6.97
2019-04-30T04:18:50.175Z,6.93
2019-04-30T04:21:18.099Z,6.00
2019-04-30T04:23:44.879Z,6.73
2019-04-30T04:26:11.107Z,5.40
2019-04-30T04:28:42.503Z,6.20
2019-04-30T04:31:05.509Z,4.70
2019-04-30T04:33:31.779Z,4.47
2019-04-30T04:35:59.800Z,5.37
2019-04-30T04:38:26.381Z,6.17
2019-04-30T04:40:52.622Z,5.33
2019-04-30T04:43:20.182Z,5.13
2019-04-30T04:45:49.469Z,4.27
2019-04-30T04:48:15.148Z,5.50
2019-04-30T04:50:41.398Z,4.97
2019-04-30T04:53:10.625Z,3.47
2019-04-30T04:55:35.827Z,3.30
2019-04-30T04:58:02.078Z,4.00
2019-04-30T05:00:29.356Z,3.83
2019-04-30T05:05:24.614Z,4.00
2019-04-30T05:07:50.850Z,3.93
2019-04-30T05:10:19.062Z,4.10
2019-04-30T05:12:45.246Z,4.67
2019-04-30T05:15:11.588Z,4.23
2019-04-30T05:17:39.814Z,3.47
2019-04-30T05:20:29.209Z,3.10
2019-04-30T05:22:55.568Z,4.03
2019-04-30T05:25:21.814Z,3.30
2019-04-30T05:27:48.809Z,4.00
2019-04-30T05:30:59.242Z,4.13
2019-04-30T05:33:25.697Z,4.60
2019-04-30T05:35:51.961Z,3.93
2019-04-30T05:38:18.937Z,3.20
2019-04-30T05:40:46.374Z,3.37
2019-04-30T05:43:12.617Z,3.53
2019-04-30T05:45:39.098Z,3.33
2019-04-30T05:51:12.769Z,2.87
2019-04-30T05:53:39.473Z,4.47
2019-04-30T05:56:09.240Z,2.20
2019-04-30T05:58:35.361Z,2.33
2019-04-30T06:01:01.610Z,5.20
2019-04-30T06:03:32.490Z,4.47
2019-04-30T06:05:56.013Z,2.67
2019-04-30T06:11:29.609Z,3.83
2019-04-30T06:14:15.637Z,3.60
2019-04-30T06:19:15.740Z,4.27
2019-04-30T06:21:41.979Z,6.03
2019-04-30T06:24:10.603Z,2.70
2019-04-30T06:26:36.508Z,3.70
2019-04-30T06:29:02.760Z,2.53
2019-04-30T06:31:34.644Z,3.67
2019-04-30T06:34:19.752Z,3.50
2019-04-30T06:39:40.420Z,2.60
2019-04-30T06:45:35.601Z,3.10
2019-04-30T06:48:23.428Z,2.87
2019-04-30T06:50:49.656Z,2.97
2019-04-30T06:53:15.898Z,3.17
2019-04-30T06:55:42.180Z,2.53
2019-04-30T06:58:14.721Z,2.60
2019-04-30T07:03:38.857Z,3.53
2019-04-30T07:06:05.810Z,2.83
2019-04-30T07:08:55.653Z,6.57
2019-04-30T07:11:39.740Z,5.93
2019-04-30T07:14:06.010Z,4.17
2019-04-30T07:16:32.261Z,2.50
2019-04-30T07:18:58.703Z,3.53
2019-04-30T07:21:25.018Z,2.73
2019-04-30T07:26:39.000Z,2.63
2019-04-30T07:29:05.272Z,2.63
2019-04-30T07:31:31.512Z,2.50
2019-04-30T07:33:59.469Z,2.50
2019-04-30T07:36:43.419Z,3.10
2019-04-30T07:38:56.614Z,3.10
2019-04-30T07:41:22.252Z,6.20
2019-04-30T07:43:49.465Z,3.00
2019-04-30T07:46:16.666Z,3.53
2019-04-30T07:48:42.949Z,2.83
2019-04-30T07:51:10.507Z,4.50
2019-04-30T07:53:50.408Z,4.00
2019-04-30T07:56:25.451Z,5.97
2019-04-30T07:58:44.869Z,3.47
2019-04-30T08:01:11.114Z,6.00
2019-04-30T08:06:25.188Z,6.77
2019-04-30T08:08:56.961Z,4.53
2019-04-30T08:11:25.783Z,4.57
2019-04-30T08:13:49.596Z,4.43
2019-04-30T08:18:43.959Z,5.43
2019-04-30T08:21:10.215Z,8.40
2019-04-30T08:23:37.744Z,4.80
2019-04-30T08:26:04.661Z,5.53
2019-04-30T08:28:30.910Z,6.10
2019-04-30T08:30:58.946Z,7.83
2019-04-30T08:36:00.974Z,4.60
2019-04-30T08:38:29.920Z,4.53
2019-04-30T08:40:58.782Z,7.63
2019-04-30T08:43:24.357Z,5.17
2019-04-30T08:45:50.609Z,7.27
2019-04-30T08:48:18.824Z,4.53
2019-04-30T08:50:45.049Z,4.70
2019-04-30T08:53:11.746Z,6.17
2019-04-30T08:55:39.470Z,3.77
2019-04-30T08:58:09.811Z,3.80
2019-04-30T09:00:33.844Z,6.13
2019-04-30T09:03:00.143Z,7.93
2019-04-30T09:05:46.117Z,4.23
2019-04-30T09:10:49.994Z,8.30
2019-04-30T09:13:16.225Z,4.17
2019-04-30T09:15:42.509Z,3.60
2019-04-30T09:18:12.421Z,5.53
2019-04-30T09:20:36.926Z,8.50
2019-04-30T09:23:03.175Z,4.33
2019-04-30T09:25:29.434Z,4.63
2019-04-30T09:27:55.677Z,4.30
2019-04-30T09:30:21.926Z,4.90
2019-04-30T09:32:49.948Z,7.55
2019-04-30T09:35:16.387Z,6.47
2019-04-30T09:37:42.638Z,4.37
2019-04-30T09:43:03.412Z,5.43
2019-04-30T09:45:29.663Z,8.03
2019-04-30T09:47:55.914Z,6.37
2019-04-30T09:50:22.159Z,5.33
2019-04-30T09:52:49.707Z,3.73
2019-04-30T09:55:16.563Z,3.70
2019-04-30T09:57:42.803Z,5.43
2019-04-30T10:00:30.809Z,5.33
2019-04-30T10:02:59.432Z,5.80
2019-04-30T10:05:25.241Z,5.00
2019-04-30T10:07:51.482Z,5.13
2019-04-30T10:13:05.421Z,4.47
2019-04-30T10:18:05.798Z,7.70
2019-04-30T10:20:51.804Z,7.47
2019-04-30T10:23:19.394Z,6.50
2019-04-30T10:28:53.571Z,5.00
2019-04-30T10:31:20.953Z,3.70
2019-04-30T10:33:48.603Z,6.40
2019-04-30T10:36:14.923Z,5.93
2019-04-30T10:38:41.180Z,4.87
2019-04-30T10:41:08.795Z,4.17
2019-04-30T10:43:35.567Z,4.20
2019-04-30T10:46:01.812Z,2.70
2019-04-30T10:48:28.060Z,12.80
2019-04-30T10:50:54.307Z,3.73
2019-04-30T10:53:20.577Z,3.43
2019-04-30T10:55:48.458Z,4.57
2019-04-30T10:58:15.477Z,7.03
2019-04-30T11:03:19.910Z,5.63
2019-04-30T11:05:41.353Z,7.57
2019-04-30T11:10:42.287Z,4.37
2019-04-30T11:13:08.553Z,4.63
2019-04-30T11:15:34.788Z,6.40
2019-04-30T11:18:01.213Z,3.67
2019-04-30T11:23:13.844Z,3.77
2019-04-30T11:25:32.565Z,4.40
2019-04-30T11:28:00.473Z,4.97
2019-04-30T11:33:09.599Z,6.93
2019-04-30T11:35:39.447Z,4.77
2019-04-30T11:38:06.042Z,5.17
2019-04-30T11:40:37.087Z,6.27
2019-04-30T11:43:00.650Z,6.40
2019-04-30T11:46:06.416Z,6.10
2019-04-30T11:48:32.660Z,5.97
2019-04-30T11:50:59.583Z,4.27
2019-04-30T11:56:09.176Z,7.47
2019-04-30T11:58:35.445Z,5.07
2019-04-30T12:01:01.821Z,4.50
2019-04-30T12:03:28.649Z,9.23
2019-04-30T12:05:56.233Z,3.90
2019-04-30T12:13:47.621Z,5.67
2019-04-30T12:16:13.874Z,9.80
2019-04-30T12:18:40.120Z,3.53
2019-04-30T12:21:06.402Z,4.17
2019-04-30T12:23:32.642Z,4.17
2019-04-30T12:26:02.357Z,6.37
2019-04-30T12:28:27.437Z,4.40
2019-04-30T12:30:55.220Z,3.20
2019-04-30T12:33:21.492Z,6.00
2019-04-30T12:35:49.221Z,5.80
2019-04-30T12:38:16.003Z,6.23
2019-04-30T12:40:42.569Z,3.47
2019-04-30T12:43:08.829Z,5.90
2019-04-30T12:45:35.078Z,4.10
2019-04-30T12:48:21.090Z,5.37
2019-04-30T12:53:54.698Z,4.27
2019-04-30T12:59:08.544Z,4.80
2019-04-30T13:01:34.770Z,4.13
2019-04-30T13:04:01.544Z,4.87
2019-04-30T13:06:29.797Z,8.40
2019-04-30T13:08:59.940Z,3.83
2019-04-30T13:11:25.826Z,6.17
2019-04-30T13:13:54.183Z,4.90
2019-04-30T13:16:21.690Z,8.73
2019-04-30T13:18:49.407Z,5.13
2019-04-30T13:21:16.149Z,6.57
2019-04-30T13:23:42.493Z,8.80
2019-04-30T13:26:09.046Z,7.03
2019-04-30T13:28:55.066Z,4.70
2019-04-30T13:31:21.345Z,7.53
2019-04-30T13:36:35.827Z,4.27
2019-04-30T13:39:21.920Z,8.77
2019-04-30T13:42:15.979Z,6.87
2019-04-30T13:47:23.778Z,5.70
2019-04-30T13:49:50.031Z,6.20
2019-04-30T13:52:16.286Z,6.07
2019-04-30T13:54:42.530Z,5.27
2019-04-30T13:57:09.142Z,9.03
2019-04-30T13:59:36.941Z,5.23
2019-04-30T14:02:03.419Z,4.77
2019-04-30T14:04:49.698Z,8.00
2019-04-30T14:07:36.047Z,8.93
2019-04-30T14:10:43.646Z,6.37
2019-04-30T14:15:49.449Z,5.93
2019-04-30T14:18:27.835Z,8.33
2019-04-30T14:20:43.859Z,4.83
2019-04-30T14:23:10.743Z,5.00
2019-04-30T14:25:38.287Z,5.37
2019-04-30T14:28:04.542Z,7.23
2019-04-30T14:30:30.781Z,8.37
2019-04-30T14:32:59.188Z,5.47
2019-04-30T14:35:25.205Z,9.40
2019-04-30T14:38:11.228Z,6.10
2019-04-30T14:40:39.959Z,5.30
2019-04-30T14:46:03.565Z,6.10
2019-04-30T14:48:51.279Z,8.97
2019-04-30T14:51:17.928Z,6.67
2019-04-30T14:54:04.425Z,5.73
2019-04-30T14:59:39.005Z,4.67
2019-04-30T15:02:25.066Z,6.57
2019-04-30T15:04:51.420Z,8.70
2019-04-30T15:07:19.397Z,6.30
2019-04-30T15:09:45.939Z,6.83
2019-04-30T15:12:12.189Z,5.70
2019-04-30T15:14:38.827Z,7.10
2019-04-30T15:17:06.650Z,8.43
2019-04-30T15:19:32.909Z,6.07
2019-04-30T15:22:00.980Z,7.00
2019-04-30T15:24:49.079Z,5.27
2019-04-30T15:27:29.237Z,5.20
2019-04-30T15:29:56.992Z,8.03
2019-04-30T15:32:23.750Z,8.10
2019-04-30T15:34:49.991Z,6.47
2019-04-30T15:37:21.599Z,7.03
2019-04-30T15:39:44.448Z,4.67
2019-04-30T15:42:10.914Z,6.90
2019-04-30T15:44:40.295Z,5.00
2019-04-30T15:47:05.456Z,5.33
2019-04-30T15:49:38.655Z,8.87
2019-04-30T15:52:05.013Z,7.20
2019-04-30T15:54:31.263Z,6.60
2019-04-30T15:57:00.256Z,6.60
2019-04-30T15:59:45.564Z,7.47
2019-04-30T16:07:59.254Z,5.57
2019-04-30T16:10:45.279Z,5.13
2019-04-30T16:15:45.360Z,6.10
2019-04-30T16:18:11.625Z,5.00
2019-04-30T16:20:39.276Z,5.37
2019-04-30T16:25:40.171Z,6.13
2019-04-30T16:28:08.522Z,8.30
2019-04-30T16:30:34.624Z,5.67
2019-04-30T16:33:00.878Z,6.97
2019-04-30T16:35:27.207Z,8.20
2019-04-30T16:37:53.480Z,6.07
2019-04-30T16:40:19.755Z,5.27
2019-04-30T16:42:46.001Z,7.70
2019-04-30T16:45:12.665Z,7.23
2019-04-30T16:47:38.916Z,5.40
2019-04-30T16:50:50.270Z,5.23
2019-04-30T16:53:14.670Z,6.23
2019-04-30T16:55:40.970Z,7.53
2019-04-30T16:58:08.928Z,6.63
2019-04-30T17:03:32.728Z,7.60
2019-04-30T17:06:18.738Z,6.00
2019-04-30T17:11:52.351Z,5.70
2019-04-30T17:14:18.617Z,5.40
2019-04-30T17:16:44.907Z,6.10
2019-04-30T17:19:11.160Z,7.23
2019-04-30T17:22:18.732Z,5.20
2019-04-30T17:24:44.974Z,5.50
2019-04-30T17:27:19.361Z,7.00
2019-04-30T17:29:39.392Z,8.70
2019-04-30T17:32:05.679Z,9.87
2019-04-30T17:34:31.947Z,9.40
2019-04-30T17:36:59.147Z,6.77
2019-04-30T17:39:26.473Z,6.47
2019-04-30T17:41:52.757Z,9.03
2019-04-30T17:44:19.021Z,9.47
2019-04-30T17:46:45.281Z,5.80
2019-04-30T17:49:11.524Z,6.47
2019-04-30T17:51:37.771Z,6.57
2019-04-30T17:54:23.791Z,5.73
2019-04-30T17:56:50.053Z,7.60
2019-04-30T17:59:16.293Z,6.37
2019-04-30T18:04:16.300Z,9.07
2019-04-30T18:06:42.592Z,8.33
2019-04-30T18:09:10.965Z,6.53
2019-04-30T18:11:37.196Z,6.60
2019-04-30T18:14:44.743Z,6.47
2019-04-30T18:17:10.992Z,7.67
2019-04-30T18:22:44.637Z,7.93
2019-04-30T18:25:30.737Z,8.47
2019-04-30T18:35:38.939Z,7.73
2019-04-30T18:38:06.802Z,6.73
2019-04-30T18:45:42.363Z,11.13
2019-04-30T18:48:09.749Z,7.83
2019-04-30T18:50:36.780Z,9.77
2019-04-30T18:55:50.818Z,10.33
2019-04-30T18:58:19.762Z,9.57
2019-04-30T19:03:21.804Z,10.87
2019-04-30T19:11:42.161Z,8.40
2019-04-30T19:14:29.359Z,9.03
2019-04-30T19:17:15.595Z,9.40
2019-04-30T19:20:01.594Z,9.23
2019-04-30T19:22:28.584Z,11.17
2019-04-30T19:24:58.551Z,11.77
2019-04-30T19:27:23.166Z,10.13
2019-04-30T19:36:05.174Z,10.67
2019-04-30T19:45:10.151Z,8.87
2019-04-30T19:57:00.508Z,9.13
2019-04-30T20:05:58.655Z,8.00
2019-04-30T20:11:24.343Z,11.17
2019-04-30T20:13:50.616Z,10.60
2019-04-30T20:16:16.853Z,11.90
2019-04-30T20:18:43.138Z,10.37
2019-04-30T20:21:53.788Z,17.13
2019-04-30T20:24:19.364Z,11.53
2019-04-30T20:26:48.789Z,11.77
2019-04-30T20:29:15.238Z,9.20
2019-04-30T20:31:41.514Z,10.53
2019-04-30T20:34:09.196Z,8.93
2019-04-30T20:36:35.918Z,9.17
2019-04-30T20:41:55.858Z,12.47
2019-04-30T20:44:22.224Z,10.80
2019-04-30T20:46:49.126Z,9.67
2019-04-30T20:49:16.612Z,10.70
2019-04-30T20:51:53.468Z,12.73
2019-04-30T20:54:11.050Z,11.30
2019-04-30T20:56:38.996Z,12.53
2019-04-30T20:59:10.097Z,11.03
2019-04-30T21:01:33.668Z,12.27
2019-04-30T21:03:59.893Z,9.87
2019-04-30T21:06:26.158Z,13.60
2019-04-30T21:08:52.392Z,11.33
2019-04-30T21:11:19.311Z,12.23
2019-04-30T21:13:46.794Z,10.87
2019-04-30T21:16:13.072Z,11.47
2019-04-30T21:18:39.304Z,10.77
2019-04-30T21:21:05.577Z,9.00
2019-04-30T21:23:31.817Z,12.60
2019-04-30T21:26:19.508Z,10.47
2019-04-30T21:28:45.957Z,11.10
2019-04-30T21:31:32.056Z,13.20
2019-04-30T21:36:45.925Z,10.20
2019-04-30T21:39:12.160Z,9.83
2019-04-30T21:41:39.545Z,10.97
2019-04-30T21:44:06.623Z,9.50
2019-04-30T21:46:32.844Z,9.73
2019-04-30T21:48:59.092Z,15.50
2019-04-30T21:51:25.352Z,8.83
2019-04-30T21:53:51.600Z,10.80
2019-04-30T21:56:17.867Z,8.37
2019-04-30T21:58:44.157Z,8.83
2019-04-30T22:01:51.707Z,13.80
2019-04-30T22:04:18.287Z,12.10
2019-04-30T22:06:44.612Z,10.77
2019-04-30T22:11:44.749Z,11.97
2019-04-30T22:14:11.027Z,11.40
2019-04-30T22:16:39.623Z,11.33
2019-04-30T22:19:05.457Z,13.90
2019-04-30T22:21:31.691Z,12.77
2019-04-30T22:23:58.052Z,13.03
2019-04-30T22:26:24.284Z,12.90
2019-04-30T22:28:50.549Z,14.30
2019-04-30T22:31:16.772Z,13.67
2019-04-30T22:33:43.049Z,11.07
2019-04-30T22:36:29.179Z,14.37
2019-04-30T22:44:06.715Z,14.80
2019-04-30T22:46:32.959Z,14.27
2019-04-30T22:48:59.189Z,15.00
2019-04-30T22:51:25.474Z,13.30
2019-04-30T22:53:51.718Z,16.83
2019-04-30T22:56:17.956Z,9.50
2019-04-30T22:58:44.242Z,11.47
2019-04-30T23:01:30.256Z,12.53
2019-04-30T23:06:30.220Z,16.73
2019-04-30T23:08:56.468Z,11.63
2019-04-30T23:11:22.729Z,14.50
2019-04-30T23:13:48.965Z,11.87
2019-04-30T23:16:15.233Z,13.47
2019-04-30T23:18:41.480Z,11.57
2019-04-30T23:21:07.733Z,14.20
2019-04-30T23:23:33.969Z,10.63
2019-04-30T23:26:00.204Z,11.50
2019-04-30T23:28:26.466Z,15.47
2019-04-30T23:30:52.695Z,17.53
2019-04-30T23:33:18.940Z,12.20
2019-04-30T23:35:45.173Z,11.97
2019-04-30T23:38:11.446Z,16.10
2019-04-30T23:40:57.433Z,10.73
2019-04-30T23:43:23.714Z,10.27
2019-04-30T23:45:50.148Z,13.57
2019-04-30T23:48:16.397Z,10.43
2019-04-30T23:50:42.660Z,15.50
2019-04-30T23:56:03.237Z,13.50
2019-04-30T23:58:29.483Z,18.60
